createdAt,value
2023-03-06T00:00:29.698Z,5.30
2023-03-06T00:02:56.692Z,5.68
2023-03-06T00:05:23.296Z,5.40
2023-03-06T00:07:50.032Z,5.25
2023-03-06T00:10:28.239Z,6.20
2023-03-06T00:12:56.588Z,5.63
2023-03-06T00:15:24.427Z,5.43
2023-03-06T00:17:50.885Z,6.17
2023-03-06T00:20:17.644Z,5.57
2023-03-06T00:22:44.207Z,5.97
2023-03-06T00:25:17.105Z,5.63
2023-03-06T00:27:44.078Z,6.07
2023-03-06T00:30:12.876Z,6.37
2023-03-06T00:32:39.636Z,5.72
2023-03-06T00:35:06.429Z,5.82
2023-03-06T00:37:32.962Z,5.95
2023-03-06T00:39:59.714Z,6.05
2023-03-06T00:42:26.185Z,6.20
2023-03-06T00:44:52.670Z,5.90
2023-03-06T00:47:19.213Z,6.18
2023-03-06T00:49:45.703Z,5.82
2023-03-06T00:52:13.211Z,5.65
2023-03-06T00:54:40.321Z,6.07
2023-03-06T00:57:07.582Z,6.65
2023-03-06T00:59:34.079Z,6.47
2023-03-06T01:02:00.527Z,6.55
2023-03-06T01:04:27.199Z,6.63
2023-03-06T01:06:53.683Z,6.03
2023-03-06T01:09:20.248Z,6.95
2023-03-06T01:11:46.972Z,6.97
2023-03-06T01:14:13.563Z,6.32
2023-03-06T01:16:40.093Z,6.15
2023-03-06T01:19:06.514Z,6.50
2023-03-06T01:21:32.987Z,6.28
2023-03-06T01:23:59.355Z,6.68
2023-03-06T01:26:25.789Z,6.35
2023-03-06T01:28:52.191Z,6.90
2023-03-06T01:31:18.662Z,7.20
2023-03-06T01:33:45.177Z,6.65
2023-03-06T01:36:12.954Z,6.55
2023-03-06T01:38:39.434Z,6.72
2023-03-06T01:41:06.350Z,6.40
2023-03-06T01:43:38.282Z,7.27
2023-03-06T01:46:28.874Z,6.47
2023-03-06T01:49:11.948Z,6.70
2023-03-06T01:51:48.935Z,7.22
2023-03-06T01:54:24.116Z,7.20
2023-03-06T01:56:56.054Z,7.10
2023-03-06T01:59:24.849Z,7.40
2023-03-06T02:01:51.376Z,7.00
2023-03-06T02:04:19.430Z,7.80
2023-03-06T02:06:47.381Z,7.32
2023-03-06T02:09:14.322Z,7.40
2023-03-06T02:11:44.048Z,7.28
2023-03-06T02:14:13.549Z,7.45
2023-03-06T02:16:41.543Z,7.57
2023-03-06T02:19:21.186Z,7.55
2023-03-06T02:21:47.712Z,7.50
2023-03-06T02:24:51.301Z,7.60
2023-03-06T02:27:19.436Z,7.32
2023-03-06T02:29:46.125Z,7.57
2023-03-06T02:32:12.608Z,7.45
2023-03-06T02:34:38.994Z,7.37
2023-03-06T02:37:08.923Z,7.95
2023-03-06T02:39:41.591Z,7.72
2023-03-06T02:42:08.200Z,7.13
2023-03-06T02:44:35.840Z,7.75
2023-03-06T02:47:02.256Z,7.27
2023-03-06T02:49:28.670Z,7.18
2023-03-06T02:51:55.082Z,7.93
2023-03-06T02:54:21.452Z,7.30
2023-03-06T02:56:47.951Z,7.53
2023-03-06T02:59:14.366Z,8.40
2023-03-06T03:01:40.844Z,8.07
2023-03-06T03:04:08.080Z,8.55
2023-03-06T03:06:34.561Z,8.15
2023-03-06T03:09:01.070Z,7.60
2023-03-06T03:11:27.502Z,7.67
2023-03-06T03:13:53.943Z,7.85
2023-03-06T03:16:20.422Z,7.30
2023-03-06T03:18:51.040Z,7.68
2023-03-06T03:21:18.148Z,8.10
2023-03-06T03:23:44.679Z,8.63
2023-03-06T03:26:15.522Z,8.07
2023-03-06T03:28:42.277Z,8.38
2023-03-06T03:31:10.274Z,7.82
2023-03-06T03:33:36.944Z,7.70
2023-03-06T03:36:05.776Z,8.10
2023-03-06T03:38:32.982Z,7.57
2023-03-06T03:41:01.477Z,7.32
2023-03-06T03:43:28.099Z,7.10
2023-03-06T03:45:54.632Z,7.50
2023-03-06T03:48:21.308Z,7.03
2023-03-06T03:50:47.837Z,7.05
2023-03-06T03:53:14.288Z,6.97
2023-03-06T03:55:40.652Z,7.25
2023-03-06T03:58:07.069Z,6.18
2023-03-06T04:00:33.551Z,7.27
2023-03-06T04:03:00.019Z,6.80
2023-03-06T04:05:26.390Z,6.47
2023-03-06T04:07:52.842Z,6.78
2023-03-06T04:10:19.341Z,6.75
2023-03-06T04:12:45.762Z,6.73
2023-03-06T04:15:12.315Z,6.72
2023-03-06T04:17:38.747Z,7.00
2023-03-06T04:20:05.597Z,9.32
2023-03-06T04:22:32.061Z,6.95
2023-03-06T04:24:58.526Z,6.93
2023-03-06T04:27:25.036Z,7.03
2023-03-06T04:29:51.517Z,7.35
2023-03-06T04:32:19.724Z,7.70
2023-03-06T04:34:47.704Z,7.15
2023-03-06T04:37:24.098Z,7.63
2023-03-06T04:39:50.942Z,7.70
2023-03-06T04:42:17.828Z,7.55
2023-03-06T04:44:45.072Z,7.18
2023-03-06T04:47:12.158Z,8.23
2023-03-06T04:49:38.660Z,7.63
2023-03-06T04:52:05.460Z,7.65
2023-03-06T04:54:31.877Z,7.07
2023-03-06T04:56:58.308Z,7.63
2023-03-06T04:59:24.915Z,6.78
2023-03-06T05:01:51.387Z,7.87
2023-03-06T05:04:17.848Z,6.97
2023-03-06T05:06:44.268Z,7.30
2023-03-06T05:09:10.634Z,8.00
2023-03-06T05:11:37.049Z,7.68
2023-03-06T05:14:03.505Z,8.13
2023-03-06T05:16:30.078Z,8.65
2023-03-06T05:18:56.650Z,8.20
2023-03-06T05:21:23.113Z,7.47
2023-03-06T05:23:49.571Z,8.05
2023-03-06T05:26:16.250Z,7.50
2023-03-06T05:28:42.827Z,7.60
2023-03-06T05:31:09.510Z,7.10
2023-03-06T05:33:37.008Z,7.40
2023-03-06T05:36:03.711Z,7.75
2023-03-06T05:38:30.152Z,8.23
2023-03-06T05:40:56.621Z,7.90
2023-03-06T05:43:23.274Z,7.13
2023-03-06T05:45:50.569Z,7.20
2023-03-06T05:48:17.123Z,7.05
2023-03-06T05:50:43.613Z,7.57
2023-03-06T05:53:10.247Z,7.80
2023-03-06T05:55:36.726Z,8.25
2023-03-06T05:58:03.384Z,8.55
2023-03-06T06:00:30.026Z,8.05
2023-03-06T06:02:56.434Z,8.03
2023-03-06T06:05:23.110Z,7.45
2023-03-06T06:07:49.552Z,8.55
2023-03-06T06:10:16.114Z,8.82
2023-03-06T06:12:42.538Z,8.38
2023-03-06T06:15:09.439Z,9.33
2023-03-06T06:17:35.879Z,9.82
2023-03-06T06:20:02.364Z,9.45
2023-03-06T06:22:28.939Z,9.27
2023-03-06T06:24:55.423Z,9.70
2023-03-06T06:27:21.825Z,9.10
2023-03-06T06:29:51.684Z,9.07
2023-03-06T06:32:18.190Z,8.75
2023-03-06T06:34:44.640Z,9.30
2023-03-06T06:37:11.085Z,9.88
2023-03-06T06:39:37.484Z,10.03
2023-03-06T06:42:26.562Z,9.75
2023-03-06T06:44:51.434Z,10.52
2023-03-06T06:47:23.063Z,8.93
2023-03-06T06:49:55.417Z,10.48
2023-03-06T06:52:23.136Z,11.07
2023-03-06T06:54:49.600Z,10.13
2023-03-06T06:57:16.466Z,10.20
2023-03-06T06:59:42.959Z,9.95
2023-03-06T07:02:14.325Z,9.65
2023-03-06T07:04:52.225Z,9.53
2023-03-06T07:07:27.313Z,10.00
2023-03-06T07:09:54.726Z,8.80
2023-03-06T07:12:21.149Z,9.00
2023-03-06T07:14:48.373Z,8.98
2023-03-06T07:17:14.816Z,12.17
2023-03-06T07:19:41.355Z,13.45
2023-03-06T07:22:07.784Z,11.23
2023-03-06T07:24:34.529Z,10.43
2023-03-06T07:27:00.930Z,13.88
2023-03-06T07:29:27.466Z,10.07
2023-03-06T07:31:54.022Z,15.20
2023-03-06T07:34:20.442Z,11.93
2023-03-06T07:36:47.042Z,9.18
2023-03-06T07:39:13.488Z,9.45
2023-03-06T07:41:39.910Z,8.40
2023-03-06T07:44:06.450Z,9.38
2023-03-06T07:46:32.975Z,8.50
2023-03-06T07:48:59.511Z,9.02
2023-03-06T07:51:26.090Z,9.07
2023-03-06T07:53:52.504Z,8.63
2023-03-06T07:56:19.054Z,8.85
2023-03-06T07:58:46.781Z,11.23
2023-03-06T08:01:16.592Z,10.60
2023-03-06T08:03:43.312Z,10.55
2023-03-06T08:06:12.565Z,11.93
2023-03-06T08:08:40.626Z,11.77
2023-03-06T08:11:08.982Z,10.48
2023-03-06T08:13:35.904Z,9.90
2023-03-06T08:16:03.656Z,9.05
2023-03-06T08:18:30.226Z,9.07
2023-03-06T08:21:09.829Z,8.40
2023-03-06T08:23:36.951Z,8.60
2023-03-06T08:26:10.429Z,9.07
2023-03-06T08:28:37.033Z,8.82
2023-03-06T08:31:11.307Z,17.20
2023-03-06T08:33:38.615Z,16.00
2023-03-06T08:36:05.609Z,9.80
2023-03-06T08:38:32.111Z,8.95
2023-03-06T08:40:58.558Z,9.52
2023-03-06T08:43:25.247Z,9.17
2023-03-06T08:45:53.361Z,9.68
2023-03-06T08:48:19.872Z,9.90
2023-03-06T08:50:46.475Z,9.75
2023-03-06T08:53:12.912Z,9.20
2023-03-06T08:55:39.470Z,9.17
2023-03-06T08:58:06.012Z,9.25
2023-03-06T09:00:33.512Z,9.05
2023-03-06T09:03:00.572Z,9.18
2023-03-06T09:05:27.346Z,9.25
2023-03-06T09:07:53.934Z,8.97
2023-03-06T09:10:22.916Z,8.98
2023-03-06T09:12:52.462Z,8.90
2023-03-06T09:15:21.571Z,9.60
2023-03-06T09:17:48.263Z,9.35
2023-03-06T09:20:15.341Z,9.17
2023-03-06T09:22:45.760Z,9.60
2023-03-06T09:25:13.748Z,9.45
2023-03-06T09:27:40.962Z,9.93
2023-03-06T09:30:08.258Z,9.35
2023-03-06T09:32:34.682Z,9.93
2023-03-06T09:35:01.351Z,9.60
2023-03-06T09:37:27.811Z,9.80
2023-03-06T09:39:54.324Z,9.82
2023-03-06T09:42:23.450Z,9.48
2023-03-06T09:44:59.976Z,9.23
2023-03-06T09:47:29.497Z,9.10
2023-03-06T09:50:44.505Z,8.57
2023-03-06T09:53:32.387Z,9.70
2023-03-06T09:56:20.458Z,9.30
2023-03-06T09:58:55.982Z,9.23
2023-03-06T10:01:34.875Z,11.35
2023-03-06T10:04:19.271Z,9.57
2023-03-06T10:06:49.091Z,10.15
2023-03-06T10:09:24.376Z,8.93
2023-03-06T10:12:15.824Z,9.57
2023-03-06T10:14:48.404Z,10.13
2023-03-06T10:17:22.137Z,9.40
2023-03-06T10:19:49.291Z,9.23
2023-03-06T10:22:38.690Z,10.13
2023-03-06T10:25:27.989Z,8.87
2023-03-06T10:28:18.626Z,8.80
2023-03-06T10:30:56.949Z,11.70
2023-03-06T10:33:44.396Z,9.07
2023-03-06T10:36:16.217Z,10.27
2023-03-06T10:38:44.435Z,10.03
2023-03-06T10:41:10.809Z,9.57
2023-03-06T10:43:43.373Z,9.38
2023-03-06T10:46:12.424Z,10.75
2023-03-06T10:48:42.006Z,10.57
2023-03-06T10:51:21.627Z,9.87
2023-03-06T10:53:56.052Z,9.55
2023-03-06T10:56:30.294Z,11.00
2023-03-06T10:59:25.380Z,9.38
2023-03-06T11:01:58.029Z,10.15
2023-03-06T11:04:33.737Z,10.47
2023-03-06T11:07:28.408Z,10.15
2023-03-06T11:09:57.885Z,10.35
2023-03-06T11:12:35.052Z,10.75
2023-03-06T11:15:17.677Z,10.20
2023-03-06T11:17:51.760Z,10.33
2023-03-06T11:20:44.684Z,11.00
2023-03-06T11:23:38.287Z,9.85
2023-03-06T11:26:04.829Z,10.23
2023-03-06T11:28:37.062Z,9.00
2023-03-06T11:31:13.702Z,9.87
2023-03-06T11:33:49.744Z,9.25
2023-03-06T11:36:25.217Z,9.15
2023-03-06T11:38:53.634Z,9.40
2023-03-06T11:41:31.141Z,8.73
2023-03-06T11:44:15.736Z,12.67
2023-03-06T19:57:34.291Z,11.13
2023-03-06T20:00:01.787Z,10.18
2023-03-06T20:02:28.373Z,10.98
2023-03-06T20:04:55.171Z,11.70
2023-03-06T20:07:22.204Z,9.35
2023-03-06T20:09:48.625Z,9.20
2023-03-06T20:12:15.989Z,9.27
2023-03-06T20:14:43.077Z,10.57
2023-03-06T20:17:09.604Z,10.63
2023-03-06T20:19:36.505Z,11.35
2023-03-06T20:22:03.341Z,10.27
2023-03-06T20:24:29.788Z,12.20
2023-03-06T20:26:57.610Z,13.20
2023-03-06T20:29:26.646Z,11.90
2023-03-06T20:31:56.106Z,12.25
2023-03-06T20:34:26.387Z,12.80
2023-03-06T20:36:53.224Z,12.82
2023-03-06T20:39:25.769Z,13.75
2023-03-06T20:41:52.322Z,13.95
2023-03-06T20:44:23.198Z,11.73
2023-03-06T20:46:52.042Z,12.30
2023-03-06T20:49:19.211Z,11.07
2023-03-06T20:51:49.972Z,11.88
2023-03-06T20:54:20.056Z,13.48
2023-03-06T20:56:48.975Z,11.68
2023-03-06T20:59:15.988Z,10.53
2023-03-06T21:01:44.861Z,11.98
2023-03-06T21:04:13.919Z,24.65
2023-03-06T21:06:42.489Z,24.02
2023-03-06T21:09:08.943Z,14.10
2023-03-06T21:11:35.574Z,14.70
2023-03-06T21:14:02.220Z,15.73
2023-03-06T21:16:30.438Z,19.17
2023-03-06T21:18:59.452Z,15.38
2023-03-06T21:21:32.030Z,18.58
2023-03-06T21:23:59.478Z,17.27
2023-03-06T21:26:28.872Z,22.02
2023-03-06T21:28:58.885Z,17.45
2023-03-06T21:31:29.521Z,17.15
2023-03-06T21:33:58.131Z,16.83
2023-03-06T21:36:25.164Z,22.47
2023-03-06T21:38:52.612Z,33.55
2023-03-06T21:41:24.787Z,14.30
2023-03-06T21:43:59.258Z,14.88
2023-03-06T21:46:29.944Z,12.55
2023-03-06T21:48:59.795Z,12.87
2023-03-06T21:51:26.919Z,11.27
2023-03-06T21:53:54.411Z,11.40
2023-03-06T21:56:28.307Z,11.05
2023-03-06T21:58:57.953Z,14.05
2023-03-06T22:01:27.482Z,10.70
2023-03-06T22:03:54.263Z,10.93
2023-03-06T22:06:24.204Z,10.65
2023-03-06T22:08:52.502Z,10.77
2023-03-06T22:11:20.840Z,12.45
2023-03-06T22:13:49.259Z,11.67
2023-03-06T22:16:16.838Z,11.63
2023-03-06T22:18:51.269Z,10.32
2023-03-06T22:21:20.326Z,10.75
2023-03-06T22:23:55.107Z,11.05
2023-03-06T22:26:21.660Z,11.40
2023-03-06T22:28:48.276Z,10.68
2023-03-06T22:31:29.008Z,10.85
2023-03-06T22:33:57.663Z,10.95
2023-03-06T22:36:25.228Z,9.25
2023-03-06T22:38:57.720Z,8.77
2023-03-06T22:41:28.740Z,8.90
2023-03-06T22:43:59.218Z,9.38
2023-03-06T22:46:26.522Z,10.05
2023-03-06T22:48:54.239Z,10.32
2023-03-06T22:51:21.145Z,9.70
2023-03-06T22:53:48.407Z,9.70
2023-03-06T22:56:20.280Z,9.52
2023-03-06T22:58:47.584Z,10.05
2023-03-06T23:01:23.190Z,8.95
2023-03-06T23:03:51.548Z,9.97
2023-03-06T23:06:24.012Z,10.20
2023-03-06T23:09:20.501Z,9.68
2023-03-06T23:11:49.352Z,10.50
2023-03-06T23:14:17.387Z,10.27
2023-03-06T23:16:44.440Z,11.77
2023-03-06T23:19:11.321Z,10.68
2023-03-06T23:21:37.856Z,10.00
2023-03-06T23:24:05.425Z,11.57
2023-03-06T23:26:34.246Z,10.32
2023-03-06T23:29:04.345Z,10.40
2023-03-06T23:31:31.563Z,10.57
2023-03-06T23:33:59.914Z,12.65
2023-03-06T23:36:27.128Z,11.10
2023-03-06T23:38:53.611Z,11.45
2023-03-06T23:41:21.688Z,10.93
2023-03-06T23:43:48.736Z,11.50
2023-03-06T23:46:15.623Z,10.65
2023-03-06T23:48:43.387Z,11.05
2023-03-06T23:51:15.537Z,11.20
2023-03-06T23:53:43.407Z,11.00
2023-03-06T23:56:09.917Z,12.02
2023-03-06T23:58:36.965Z,12.05
